sensor_id;sensor_type;location;lat;lon;timestamp;pressure;altitude;pressure_sealevel;temperature;humidity
73600;BME280;61877;48.246;9.220;2023-03-21T00:01:04;94330.31;;;4.85;89.09
73600;BME280;61877;48.246;9.220;2023-03-21T00:03:32;94328.66;;;4.76;89.61
73600;BME280;61877;48.246;9.220;2023-03-21T00:06:04;94329.91;;;4.65;90.11
73600;BME280;61877;48.246;9.220;2023-03-21T00:08:29;94328.22;;;4.55;90.28
73600;BME280;61877;48.246;9.220;2023-03-21T00:11:04;94329.22;;;4.46;90.58
73600;BME280;61877;48.246;9.220;2023-03-21T00:13:31;94330.66;;;4.38;91.07
73600;BME280;61877;48.246;9.220;2023-03-21T00:15:57;94330.75;;;4.33;91.49
73600;BME280;61877;48.246;9.220;2023-03-21T00:18:23;94321.31;;;4.27;91.55
73600;BME280;61877;48.246;9.220;2023-03-21T00:20:56;94321.69;;;4.21;91.44
73600;BME280;61877;48.246;9.220;2023-03-21T00:23:26;94324.84;;;4.23;92.43
73600;BME280;61877;48.246;9.220;2023-03-21T00:25:51;94327.50;;;4.23;91.92
73600;BME280;61877;48.246;9.220;2023-03-21T00:28:20;94322.28;;;4.18;91.89
73600;BME280;61877;48.246;9.220;2023-03-21T00:30:46;94319.63;;;4.18;92.26
73600;BME280;61877;48.246;9.220;2023-03-21T00:33:16;94319.63;;;4.18;92.04
73600;BME280;61877;48.246;9.220;2023-03-21T00:35:42;94316.97;;;4.18;92.16
73600;BME280;61877;48.246;9.220;2023-03-21T00:38:07;94309.47;;;4.20;91.79
73600;BME280;61877;48.246;9.220;2023-03-21T00:40:37;94315.28;;;4.22;91.89
73600;BME280;61877;48.246;9.220;2023-03-21T00:43:02;94312.63;;;4.22;91.86
73600;BME280;61877;48.246;9.220;2023-03-21T00:45:28;94310.19;;;4.25;91.91
73600;BME280;61877;48.246;9.220;2023-03-21T00:47:56;94308.22;;;4.31;92.00
73600;BME280;61877;48.246;9.220;2023-03-21T00:50:23;94303.88;;;4.35;91.99
73600;BME280;61877;48.246;9.220;2023-03-21T00:56:02;94302.81;;;4.36;91.53
73600;BME280;61877;48.246;9.220;2023-03-21T00:58:28;94301.16;;;4.40;91.42
73600;BME280;61877;48.246;9.220;2023-03-21T01:00:53;94304.00;;;4.43;91.22
73600;BME280;61877;48.246;9.220;2023-03-21T01:03:19;94301.06;;;4.45;91.14
73600;BME280;61877;48.246;9.220;2023-03-21T01:05:47;94297.91;;;4.43;91.13
73600;BME280;61877;48.246;9.220;2023-03-21T01:08:17;94293.59;;;4.47;91.39
73600;BME280;61877;48.246;9.220;2023-03-21T01:10:46;94294.38;;;4.47;91.29
73600;BME280;61877;48.246;9.220;2023-03-21T01:13:16;94287.69;;;4.50;91.54
73600;BME280;61877;48.246;9.220;2023-03-21T01:15:44;94291.34;;;4.54;91.23
73600;BME280;61877;48.246;9.220;2023-03-21T01:18:09;94287.09;;;4.53;90.98
73600;BME280;61877;48.246;9.220;2023-03-21T01:20:39;94284.44;;;4.53;91.19
73600;BME280;61877;48.246;9.220;2023-03-21T01:23:05;94280.41;;;4.55;91.16
73600;BME280;61877;48.246;9.220;2023-03-21T01:25:31;94283.38;;;4.54;91.22
73600;BME280;61877;48.246;9.220;2023-03-21T01:28:00;94277.47;;;4.57;90.82
73600;BME280;61877;48.246;9.220;2023-03-21T01:30:27;94277.66;;;4.60;91.11
73600;BME280;61877;48.246;9.220;2023-03-21T01:32:55;94274.50;;;4.58;90.88
73600;BME280;61877;48.246;9.220;2023-03-21T01:35:21;94278.94;;;4.63;91.32
73600;BME280;61877;48.246;9.220;2023-03-21T01:37:46;94279.63;;;4.68;91.17
73600;BME280;61877;48.246;9.220;2023-03-21T01:40:20;94286.81;;;4.68;90.89
73600;BME280;61877;48.246;9.220;2023-03-21T01:42:45;94275.09;;;4.69;90.84
73600;BME280;61877;48.246;9.220;2023-03-21T01:48:12;94278.94;;;4.63;91.29
73600;BME280;61877;48.246;9.220;2023-03-21T01:50:40;94276.28;;;4.63;91.30
73600;BME280;61877;48.246;9.220;2023-03-21T01:53:07;94271.75;;;4.63;91.51
73600;BME280;61877;48.246;9.220;2023-03-21T01:55:37;94272.34;;;4.60;91.36
73600;BME280;61877;48.246;9.220;2023-03-21T01:58:03;94271.34;;;4.56;91.03
73600;BME280;61877;48.246;9.220;2023-03-21T02:00:32;94267.94;;;4.56;91.35
73600;BME280;61877;48.246;9.220;2023-03-21T02:03:08;94269.00;;;4.55;91.27
73600;BME280;61877;48.246;9.220;2023-03-21T02:05:43;94262.41;;;4.52;91.25
73600;BME280;61877;48.246;9.220;2023-03-21T02:08:14;94266.84;;;4.57;91.06
73600;BME280;61877;48.246;9.220;2023-03-21T02:10:44;94263.09;;;4.58;91.14
73600;BME280;61877;48.246;9.220;2023-03-21T02:13:13;94265.56;;;4.54;90.91
73600;BME280;61877;48.246;9.220;2023-03-21T02:15:41;94258.97;;;4.52;91.61
73600;BME280;61877;48.246;9.220;2023-03-21T02:18:18;94254.66;;;4.56;91.47
73600;BME280;61877;48.246;9.220;2023-03-21T02:21:07;94263.09;;;4.58;91.54
73600;BME280;61877;48.246;9.220;2023-03-21T02:24:07;94259.97;;;4.56;91.07
73600;BME280;61877;48.246;9.220;2023-03-21T02:27:10;94249.91;;;4.53;91.45
73600;BME280;61877;48.246;9.220;2023-03-21T02:30:02;94244.31;;;4.54;91.74
73600;BME280;61877;48.246;9.220;2023-03-21T02:32:47;94240.38;;;4.52;91.85
73600;BME280;61877;48.246;9.220;2023-03-21T02:35:27;94240.06;;;4.53;91.21
73600;BME280;61877;48.246;9.220;2023-03-21T02:38:03;94238.50;;;4.52;91.39
73600;BME280;61877;48.246;9.220;2023-03-21T02:40:36;94241.47;;;4.51;91.97
73600;BME280;61877;48.246;9.220;2023-03-21T02:43:06;94243.81;;;4.52;91.81
73600;BME280;61877;48.246;9.220;2023-03-21T02:45:38;94248.03;;;4.53;92.00
73600;BME280;61877;48.246;9.220;2023-03-21T02:48:08;94250.41;;;4.55;91.74
73600;BME280;61877;48.246;9.220;2023-03-21T02:50:40;94249.13;;;4.52;91.78
73600;BME280;61877;48.246;9.220;2023-03-21T02:53:11;94248.84;;;4.54;91.94
73600;BME280;61877;48.246;9.220;2023-03-21T02:55:39;94247.13;;;4.58;92.04
73600;BME280;61877;48.246;9.220;2023-03-21T02:58:09;94252.94;;;4.60;92.05
73600;BME280;61877;48.246;9.220;2023-03-21T03:00:38;94241.25;;;4.61;91.86
73600;BME280;61877;48.246;9.220;2023-03-21T03:03:04;94245.47;;;4.62;91.68
73600;BME280;61877;48.246;9.220;2023-03-21T03:05:42;94243.72;;;4.57;91.76
73600;BME280;61877;48.246;9.220;2023-03-21T03:08:18;94245.97;;;4.64;91.94
73600;BME280;61877;48.246;9.220;2023-03-21T03:10:55;94247.53;;;4.65;91.74
73600;BME280;61877;48.246;9.220;2023-03-21T03:13:34;94247.84;;;4.63;91.37
73600;BME280;61877;48.246;9.220;2023-03-21T03:16:09;94243.22;;;4.69;91.56
73600;BME280;61877;48.246;9.220;2023-03-21T03:18:50;94238.66;;;4.69;91.43
73600;BME280;61877;48.246;9.220;2023-03-21T03:21:25;94231.50;;;4.70;91.24
73600;BME280;61877;48.246;9.220;2023-03-21T03:23:56;94231.19;;;4.71;91.16
73600;BME280;61877;48.246;9.220;2023-03-21T03:26:25;94230.53;;;4.66;91.57
73600;BME280;61877;48.246;9.220;2023-03-21T03:28:57;94230.81;;;4.64;91.84
73600;BME280;61877;48.246;9.220;2023-03-21T03:31:27;94227.06;;;4.65;91.87
73600;BME280;61877;48.246;9.220;2023-03-21T03:33:56;94228.44;;;4.63;91.87
73600;BME280;61877;48.246;9.220;2023-03-21T03:36:26;94235.94;;;4.61;92.07
73600;BME280;61877;48.246;9.220;2023-03-21T03:39:02;94226.09;;;4.61;91.93
73600;BME280;61877;48.246;9.220;2023-03-21T03:41:34;94229.53;;;4.62;92.04
73600;BME280;61877;48.246;9.220;2023-03-21T03:44:07;94232.69;;;4.64;92.27
73600;BME280;61877;48.246;9.220;2023-03-21T03:46:36;94225.78;;;4.63;92.14
73600;BME280;61877;48.246;9.220;2023-03-21T03:49:07;94222.66;;;4.61;92.20
73600;BME280;61877;48.246;9.220;2023-03-21T03:51:39;94221.28;;;4.63;91.93
73600;BME280;61877;48.246;9.220;2023-03-21T03:54:12;94224.72;;;4.64;91.77
73600;BME280;61877;48.246;9.220;2023-03-21T03:56:39;94218.50;;;4.68;91.50
73600;BME280;61877;48.246;9.220;2023-03-21T03:59:05;94218.91;;;4.62;91.88
73600;BME280;61877;48.246;9.220;2023-03-21T04:01:31;94210.94;;;4.62;91.91
73600;BME280;61877;48.246;9.220;2023-03-21T04:03:56;94210.94;;;4.62;92.01
73600;BME280;61877;48.246;9.220;2023-03-21T04:06:28;94211.44;;;4.64;91.79
73600;BME280;61877;48.246;9.220;2023-03-21T04:08:53;94207.78;;;4.60;91.91
73600;BME280;61877;48.246;9.220;2023-03-21T04:11:28;94206.31;;;4.54;92.47
73600;BME280;61877;48.246;9.220;2023-03-21T04:13:53;94201.31;;;4.52;92.35
73600;BME280;61877;48.246;9.220;2023-03-21T04:16:20;94202.97;;;4.48;92.63
73600;BME280;61877;48.246;9.220;2023-03-21T04:18:45;94205.13;;;4.46;92.51
73600;BME280;61877;48.246;9.220;2023-03-21T04:21:11;94207.03;;;4.46;92.07
73600;BME280;61877;48.246;9.220;2023-03-21T04:23:38;94215.69;;;4.38;92.58
73600;BME280;61877;48.246;9.220;2023-03-21T04:26:12;94213.13;;;4.33;93.06
73600;BME280;61877;48.246;9.220;2023-03-21T04:28:40;94210.56;;;4.28;92.91
73600;BME280;61877;48.246;9.220;2023-03-21T04:31:07;94209.56;;;4.24;93.07
73600;BME280;61877;48.246;9.220;2023-03-21T04:33:35;94216.63;;;4.15;93.04
73600;BME280;61877;48.246;9.220;2023-03-21T04:36:00;94211.72;;;4.08;93.95
73600;BME280;61877;48.246;9.220;2023-03-21T04:38:28;94207.59;;;4.02;93.89
73600;BME280;61877;48.246;9.220;2023-03-21T04:40:54;94210.91;;;3.94;93.81
73600;BME280;61877;48.246;9.220;2023-03-21T04:43:19;94216.41;;;3.84;93.94
73600;BME280;61877;48.246;9.220;2023-03-21T04:45:48;94207.75;;;3.78;94.33
73600;BME280;61877;48.246;9.220;2023-03-21T04:48:14;94211.56;;;3.72;94.40
73600;BME280;61877;48.246;9.220;2023-03-21T04:50:43;94212.53;;;3.76;94.22
73600;BME280;61877;48.246;9.220;2023-03-21T04:53:09;94206.19;;;3.77;94.23
73600;BME280;61877;48.246;9.220;2023-03-21T04:55:35;94212.06;;;3.74;94.47
73600;BME280;61877;48.246;9.220;2023-03-21T04:58:02;94206.06;;;3.69;94.49
73600;BME280;61877;48.246;9.220;2023-03-21T05:00:28;94208.28;;;3.62;94.67
73600;BME280;61877;48.246;9.220;2023-03-21T05:03:01;94215.56;;;3.56;94.58
73600;BME280;61877;48.246;9.220;2023-03-21T05:05:27;94211.91;;;3.52;94.79
73600;BME280;61877;48.246;9.220;2023-03-21T05:07:53;94217.78;;;3.49;95.21
73600;BME280;61877;48.246;9.220;2023-03-21T05:10:19;94212.19;;;3.51;95.47
73600;BME280;61877;48.246;9.220;2023-03-21T05:12:44;94221.63;;;3.57;95.29
73600;BME280;61877;48.246;9.220;2023-03-21T05:15:09;94213.38;;;3.58;95.21
73600;BME280;61877;48.246;9.220;2023-03-21T05:17:36;94207.53;;;3.61;95.23
73600;BME280;61877;48.246;9.220;2023-03-21T05:20:25;94207.91;;;3.68;94.57
73600;BME280;61877;48.246;9.220;2023-03-21T05:22:50;94203.41;;;3.69;94.07
73600;BME280;61877;48.246;9.220;2023-03-21T05:30:30;94208.13;;;3.72;94.38
73600;BME280;61877;48.246;9.220;2023-03-21T05:33:04;94219.94;;;3.79;94.24
73600;BME280;61877;48.246;9.220;2023-03-21T05:35:32;94222.59;;;3.79;94.32
73600;BME280;61877;48.246;9.220;2023-03-21T05:38:10;94224.38;;;3.84;94.29
73600;BME280;61877;48.246;9.220;2023-03-21T05:40:36;94216.03;;;3.90;94.57
73600;BME280;61877;48.246;9.220;2023-03-21T05:43:02;94213.28;;;3.95;93.42
73600;BME280;61877;48.246;9.220;2023-03-21T05:45:27;94222.81;;;3.96;93.33
73600;BME280;61877;48.246;9.220;2023-03-21T05:47:53;94216.44;;;3.97;93.45
73600;BME280;61877;48.246;9.220;2023-03-21T05:50:21;94211.91;;;3.98;93.53
73600;BME280;61877;48.246;9.220;2023-03-21T05:52:52;94211.34;;;4.01;93.56
73600;BME280;61877;48.246;9.220;2023-03-21T05:55:27;94213.59;;;4.08;93.20
73600;BME280;61877;48.246;9.220;2023-03-21T05:57:56;94215.66;;;4.11;93.13
73600;BME280;61877;48.246;9.220;2023-03-21T06:00:30;94221.84;;;4.20;93.05
73600;BME280;61877;48.246;9.220;2023-03-21T06:02:58;94213.78;;;4.25;92.99
73600;BME280;61877;48.246;9.220;2023-03-21T06:05:28;94206.44;;;4.35;92.35
73600;BME280;61877;48.246;9.220;2023-03-21T06:07:58;94204.28;;;4.37;91.97
73600;BME280;61877;48.246;9.220;2023-03-21T06:10:27;94208.19;;;4.53;91.62
73600;BME280;61877;48.246;9.220;2023-03-21T06:13:01;94200.91;;;4.59;90.90
73600;BME280;61877;48.246;9.220;2023-03-21T06:15:27;94202.88;;;4.67;91.04
73600;BME280;61877;48.246;9.220;2023-03-21T06:17:53;94213.28;;;4.77;90.99
73600;BME280;61877;48.246;9.220;2023-03-21T06:20:19;94209.72;;;4.95;90.58
73600;BME280;61877;48.246;9.220;2023-03-21T06:22:46;94213.72;;;5.06;89.46
73600;BME280;61877;48.246;9.220;2023-03-21T06:25:15;94222.88;;;5.13;89.03
73600;BME280;61877;48.246;9.220;2023-03-21T06:27:41;94221.16;;;5.17;88.96
73600;BME280;61877;48.246;9.220;2023-03-21T06:30:34;94219.97;;;5.23;88.78
73600;BME280;61877;48.246;9.220;2023-03-21T06:33:10;94214.41;;;5.11;88.88
73600;BME280;61877;48.246;9.220;2023-03-21T06:35:36;94219.00;;;5.19;88.81
73600;BME280;61877;48.246;9.220;2023-03-21T06:38:03;94215.72;;;5.22;89.03
73600;BME280;61877;48.246;9.220;2023-03-21T06:40:29;94215.91;;;5.26;89.40
73600;BME280;61877;48.246;9.220;2023-03-21T06:43:01;94207.78;;;5.45;88.62
73600;BME280;61877;48.246;9.220;2023-03-21T06:45:26;94198.94;;;5.58;88.13
73600;BME280;61877;48.246;9.220;2023-03-21T06:47:52;94204.44;;;5.61;87.12
73600;BME280;61877;48.246;9.220;2023-03-21T06:50:18;94215.94;;;5.70;87.00
73600;BME280;61877;48.246;9.220;2023-03-21T06:52:46;94218.00;;;5.73;87.10
73600;BME280;61877;48.246;9.220;2023-03-21T06:55:13;94217.00;;;5.83;87.20
73600;BME280;61877;48.246;9.220;2023-03-21T06:57:45;94215.47;;;5.90;86.89
73600;BME280;61877;48.246;9.220;2023-03-21T07:00:12;94212.84;;;5.99;86.61
73600;BME280;61877;48.246;9.220;2023-03-21T07:02:39;94216.41;;;6.16;85.65
73600;BME280;61877;48.246;9.220;2023-03-21T07:05:08;94213.06;;;6.11;85.32
73600;BME280;61877;48.246;9.220;2023-03-21T07:07:34;94205.34;;;6.31;85.55
73600;BME280;61877;48.246;9.220;2023-03-21T07:10:00;94218.88;;;6.52;84.15
73600;BME280;61877;48.246;9.220;2023-03-21T07:12:30;94203.09;;;6.64;83.58
73600;BME280;61877;48.246;9.220;2023-03-21T07:14:57;94203.88;;;6.56;83.16
73600;BME280;61877;48.246;9.220;2023-03-21T07:17:22;94207.31;;;6.65;83.11
73600;BME280;61877;48.246;9.220;2023-03-21T07:19:48;94213.28;;;6.62;82.83
73600;BME280;61877;48.246;9.220;2023-03-21T07:22:13;94204.84;;;6.69;83.44
73600;BME280;61877;48.246;9.220;2023-03-21T07:24:39;94196.06;;;6.77;83.27
73600;BME280;61877;48.246;9.220;2023-03-21T07:27:06;94198.44;;;6.70;83.37
73600;BME280;61877;48.246;9.220;2023-03-21T07:29:33;94200.94;;;6.75;83.59
73600;BME280;61877;48.246;9.220;2023-03-21T07:32:00;94197.31;;;6.71;83.76
73600;BME280;61877;48.246;9.220;2023-03-21T07:34:27;94191.38;;;6.74;83.43
73600;BME280;61877;48.246;9.220;2023-03-21T07:36:53;94198.88;;;6.72;83.92
73600;BME280;61877;48.246;9.220;2023-03-21T07:39:20;94201.25;;;6.82;83.59
73600;BME280;61877;48.246;9.220;2023-03-21T07:41:46;94194.41;;;6.98;82.77
73600;BME280;61877;48.246;9.220;2023-03-21T07:44:16;94192.66;;;7.02;81.99
73600;BME280;61877;48.246;9.220;2023-03-21T07:46:42;94201.50;;;7.19;81.49
73600;BME280;61877;48.246;9.220;2023-03-21T07:49:14;94197.56;;;7.25;81.28
73600;BME280;61877;48.246;9.220;2023-03-21T07:51:40;94202.44;;;7.32;80.64
73600;BME280;61877;48.246;9.220;2023-03-21T07:54:06;94201.16;;;7.46;80.26
73600;BME280;61877;48.246;9.220;2023-03-21T07:56:35;94196.31;;;7.57;79.82
73600;BME280;61877;48.246;9.220;2023-03-21T07:59:01;94201.91;;;7.89;78.46
73600;BME280;61877;48.246;9.220;2023-03-21T08:01:27;94194.75;;;8.19;77.97
73600;BME280;61877;48.246;9.220;2023-03-21T08:03:56;94196.38;;;8.58;77.44
73600;BME280;61877;48.246;9.220;2023-03-21T08:06:26;94194.97;;;8.89;75.84
73600;BME280;61877;48.246;9.220;2023-03-21T08:08:53;94190.97;;;8.95;72.77
73600;BME280;61877;48.246;9.220;2023-03-21T08:11:22;94194.34;;;9.13;71.49
73600;BME280;61877;48.246;9.220;2023-03-21T08:13:48;94190.03;;;9.21;71.28
73600;BME280;61877;48.246;9.220;2023-03-21T08:16:14;94181.03;;;9.46;71.29
73600;BME280;61877;48.246;9.220;2023-03-21T08:18:41;94184.25;;;9.72;70.04
73600;BME280;61877;48.246;9.220;2023-03-21T08:21:08;94178.16;;;9.83;69.87
73600;BME280;61877;48.246;9.220;2023-03-21T08:23:36;94183.03;;;9.90;68.15
73600;BME280;61877;48.246;9.220;2023-03-21T08:26:02;94166.34;;;10.17;67.49
73600;BME280;61877;48.246;9.220;2023-03-21T08:28:30;94171.34;;;10.51;67.71
73600;BME280;61877;48.246;9.220;2023-03-21T08:30:56;94161.28;;;10.72;67.09
73600;BME280;61877;48.246;9.220;2023-03-21T08:33:22;94163.81;;;10.93;66.66
73600;BME280;61877;48.246;9.220;2023-03-21T08:35:49;94162.16;;;11.00;66.23
73600;BME280;61877;48.246;9.220;2023-03-21T08:38:15;94161.94;;;10.93;64.74
73600;BME280;61877;48.246;9.220;2023-03-21T08:40:43;94157.66;;;11.04;65.36
73600;BME280;61877;48.246;9.220;2023-03-21T08:43:09;94161.59;;;11.07;65.05
73600;BME280;61877;48.246;9.220;2023-03-21T08:45:35;94162.38;;;10.83;64.16
73600;BME280;61877;48.246;9.220;2023-03-21T08:48:01;94159.47;;;10.88;65.84
73600;BME280;61877;48.246;9.220;2023-03-21T08:50:27;94165.47;;;11.09;64.63
73600;BME280;61877;48.246;9.220;2023-03-21T08:53:00;94159.25;;;11.05;64.60
73600;BME280;61877;48.246;9.220;2023-03-21T08:58:23;94157.38;;;11.45;62.39
73600;BME280;61877;48.246;9.220;2023-03-21T09:00:53;94156.03;;;11.79;62.18
73600;BME280;61877;48.246;9.220;2023-03-21T09:03:18;94152.22;;;11.80;61.03
73600;BME280;61877;48.246;9.220;2023-03-21T09:05:47;94150.66;;;12.07;61.57
73600;BME280;61877;48.246;9.220;2023-03-21T09:08:12;94150.16;;;12.48;59.95
73600;BME280;61877;48.246;9.220;2023-03-21T09:10:39;94144.19;;;12.54;60.86
73600;BME280;61877;48.246;9.220;2023-03-21T09:13:05;94151.63;;;12.45;59.81
73600;BME280;61877;48.246;9.220;2023-03-21T09:15:34;94154.75;;;12.78;59.51
73600;BME280;61877;48.246;9.220;2023-03-21T09:18:00;94154.94;;;12.70;58.63
73600;BME280;61877;48.246;9.220;2023-03-21T09:20:26;94145.78;;;12.90;58.80
73600;BME280;61877;48.246;9.220;2023-03-21T09:22:53;94152.31;;;13.05;57.98
73600;BME280;61877;48.246;9.220;2023-03-21T09:25:20;94147.00;;;13.43;56.40
73600;BME280;61877;48.246;9.220;2023-03-21T09:27:46;94152.69;;;13.57;57.23
73600;BME280;61877;48.246;9.220;2023-03-21T09:30:13;94147.22;;;14.10;55.31
73600;BME280;61877;48.246;9.220;2023-03-21T09:32:42;94144.59;;;14.14;54.63
73600;BME280;61877;48.246;9.220;2023-03-21T09:35:08;94150.63;;;14.27;54.88
73600;BME280;61877;48.246;9.220;2023-03-21T09:37:34;94148.66;;;14.69;54.38
73600;BME280;61877;48.246;9.220;2023-03-21T09:40:01;94151.53;;;14.57;54.00
73600;BME280;61877;48.246;9.220;2023-03-21T09:42:36;94144.13;;;15.25;53.51
73600;BME280;61877;48.246;9.220;2023-03-21T09:45:11;94142.94;;;15.78;50.28
73600;BME280;61877;48.246;9.220;2023-03-21T09:47:44;94146.00;;;15.47;50.41
73600;BME280;61877;48.246;9.220;2023-03-21T09:50:14;94141.84;;;15.27;49.20
73600;BME280;61877;48.246;9.220;2023-03-21T09:52:44;94144.13;;;14.99;51.39
73600;BME280;61877;48.246;9.220;2023-03-21T09:55:16;94141.13;;;15.04;49.45
73600;BME280;61877;48.246;9.220;2023-03-21T09:57:45;94143.16;;;15.10;50.97
73600;BME280;61877;48.246;9.220;2023-03-21T10:00:16;94128.03;;;15.91;48.17
73600;BME280;61877;48.246;9.220;2023-03-21T10:02:47;94125.09;;;16.07;46.11
73600;BME280;61877;48.246;9.220;2023-03-21T10:05:22;94123.78;;;16.30;47.41
73600;BME280;61877;48.246;9.220;2023-03-21T10:07:52;94131.03;;;16.19;46.11
73600;BME280;61877;48.246;9.220;2023-03-21T10:10:24;94131.66;;;16.42;43.54
73600;BME280;61877;48.246;9.220;2023-03-21T10:12:53;94125.00;;;15.96;45.56
73600;BME280;61877;48.246;9.220;2023-03-21T10:15:23;94124.97;;;16.29;45.13
73600;BME280;61877;48.246;9.220;2023-03-21T10:17:57;94122.09;;;16.52;44.19
73600;BME280;61877;48.246;9.220;2023-03-21T10:20:28;94117.88;;;17.02;44.95
73600;BME280;61877;48.246;9.220;2023-03-21T10:22:57;94112.28;;;17.35;43.52
73600;BME280;61877;48.246;9.220;2023-03-21T10:25:32;94105.34;;;16.39;43.96
73600;BME280;61877;48.246;9.220;2023-03-21T10:27:59;94113.06;;;16.77;45.43
73600;BME280;61877;48.246;9.220;2023-03-21T10:30:36;94105.72;;;16.82;44.94
73600;BME280;61877;48.246;9.220;2023-03-21T10:33:12;94098.03;;;16.87;43.68
73600;BME280;61877;48.246;9.220;2023-03-21T10:35:40;94102.72;;;17.55;44.45
73600;BME280;61877;48.246;9.220;2023-03-21T10:38:16;94108.63;;;17.74;41.89
73600;BME280;61877;48.246;9.220;2023-03-21T10:40:42;94101.34;;;17.89;42.88
73600;BME280;61877;48.246;9.220;2023-03-21T10:43:17;94100.13;;;17.72;42.61
73600;BME280;61877;48.246;9.220;2023-03-21T10:45:45;94099.34;;;17.75;40.43
73600;BME280;61877;48.246;9.220;2023-03-21T10:48:13;94101.47;;;17.42;41.97
73600;BME280;61877;48.246;9.220;2023-03-21T10:50:39;94094.75;;;17.18;42.52
73600;BME280;61877;48.246;9.220;2023-03-21T10:53:16;94098.53;;;17.61;41.31
73600;BME280;61877;48.246;9.220;2023-03-21T10:55:44;94094.63;;;16.97;41.72
73600;BME280;61877;48.246;9.220;2023-03-21T10:58:15;94094.41;;;17.27;40.58
73600;BME280;61877;48.246;9.220;2023-03-21T11:00:43;94092.22;;;17.46;41.81
73600;BME280;61877;48.246;9.220;2023-03-21T11:03:20;94096.44;;;17.44;41.39
73600;BME280;61877;48.246;9.220;2023-03-21T11:05:47;94093.53;;;17.09;41.17
73600;BME280;61877;48.246;9.220;2023-03-21T11:08:18;94101.09;;;16.86;42.02
73600;BME280;61877;48.246;9.220;2023-03-21T11:10:59;94100.53;;;17.17;42.94
73600;BME280;61877;48.246;9.220;2023-03-21T11:13:37;94099.41;;;17.18;41.59
73600;BME280;61877;48.246;9.220;2023-03-21T11:16:09;94103.34;;;17.31;39.63
73600;BME280;61877;48.246;9.220;2023-03-21T11:18:41;94102.69;;;17.48;40.84
73600;BME280;61877;48.246;9.220;2023-03-21T11:21:09;94090.19;;;18.15;40.05
73600;BME280;61877;48.246;9.220;2023-03-21T11:23:43;94089.72;;;17.92;39.07
73600;BME280;61877;48.246;9.220;2023-03-21T11:26:10;94085.81;;;17.86;37.78
73600;BME280;61877;48.246;9.220;2023-03-21T11:28:39;94089.88;;;17.45;38.23
73600;BME280;61877;48.246;9.220;2023-03-21T11:31:15;94081.59;;;17.20;40.72
73600;BME280;61877;48.246;9.220;2023-03-21T11:33:48;94090.53;;;16.70;40.66
73600;BME280;61877;48.246;9.220;2023-03-21T11:36:33;94085.88;;;16.67;41.10
73600;BME280;61877;48.246;9.220;2023-03-21T11:39:17;94077.25;;;17.05;41.78
73600;BME280;61877;48.246;9.220;2023-03-21T11:41:52;94080.22;;;16.90;41.88
73600;BME280;61877;48.246;9.220;2023-03-21T11:44:27;94081.81;;;17.52;40.66
73600;BME280;61877;48.246;9.220;2023-03-21T11:46:56;94072.91;;;17.55;41.66
73600;BME280;61877;48.246;9.220;2023-03-21T11:49:24;94077.06;;;16.81;40.93
73600;BME280;61877;48.246;9.220;2023-03-21T11:52:01;94070.09;;;16.80;40.50
73600;BME280;61877;48.246;9.220;2023-03-21T11:54:32;94070.44;;;16.71;40.59
73600;BME280;61877;48.246;9.220;2023-03-21T11:57:07;94067.81;;;16.85;41.95
73600;BME280;61877;48.246;9.220;2023-03-21T11:59:42;94067.75;;;16.74;42.72
73600;BME280;61877;48.246;9.220;2023-03-21T12:02:41;94061.41;;;16.60;42.00
73600;BME280;61877;48.246;9.220;2023-03-21T12:05:17;94060.31;;;16.64;41.46
73600;BME280;61877;48.246;9.220;2023-03-21T12:07:50;94046.81;;;16.68;41.48
73600;BME280;61877;48.246;9.220;2023-03-21T12:10:28;94042.41;;;17.07;40.23
73600;BME280;61877;48.246;9.220;2023-03-21T12:13:02;94037.09;;;17.28;41.38
73600;BME280;61877;48.246;9.220;2023-03-21T12:15:34;94031.31;;;17.37;39.63
73600;BME280;61877;48.246;9.220;2023-03-21T12:18:05;94030.75;;;17.03;40.25
73600;BME280;61877;48.246;9.220;2023-03-21T12:20:40;94028.66;;;17.44;39.88
73600;BME280;61877;48.246;9.220;2023-03-21T12:23:29;94021.66;;;17.36;39.81
73600;BME280;61877;48.246;9.220;2023-03-21T12:26:10;94026.13;;;17.04;39.27
73600;BME280;61877;48.246;9.220;2023-03-21T12:28:45;94019.94;;;17.07;40.88
73600;BME280;61877;48.246;9.220;2023-03-21T12:31:21;94023.50;;;17.25;42.69
73600;BME280;61877;48.246;9.220;2023-03-21T12:34:00;94016.97;;;17.36;43.21
73600;BME280;61877;48.246;9.220;2023-03-21T12:36:41;94016.09;;;17.08;43.47
73600;BME280;61877;48.246;9.220;2023-03-21T12:39:20;94013.91;;;17.34;42.74
73600;BME280;61877;48.246;9.220;2023-03-21T12:41:54;94010.78;;;17.32;40.72
73600;BME280;61877;48.246;9.220;2023-03-21T12:44:25;94003.50;;;17.47;41.79
73600;BME280;61877;48.246;9.220;2023-03-21T12:46:56;94007.06;;;17.68;41.73
73600;BME280;61877;48.246;9.220;2023-03-21T12:49:26;94011.78;;;17.85;40.00
73600;BME280;61877;48.246;9.220;2023-03-21T12:51:58;94009.03;;;17.82;39.56
73600;BME280;61877;48.246;9.220;2023-03-21T12:54:31;94004.84;;;18.27;40.32
73600;BME280;61877;48.246;9.220;2023-03-21T12:57:02;94003.72;;;18.49;37.91
73600;BME280;61877;48.246;9.220;2023-03-21T12:59:35;94007.59;;;18.48;35.48
73600;BME280;61877;48.246;9.220;2023-03-21T13:02:13;94002.94;;;18.52;32.25
73600;BME280;61877;48.246;9.220;2023-03-21T13:04:46;94000.16;;;17.99;34.63
73600;BME280;61877;48.246;9.220;2023-03-21T13:07:17;93995.56;;;18.56;34.22
73600;BME280;61877;48.246;9.220;2023-03-21T13:09:45;93993.59;;;18.84;33.82
73600;BME280;61877;48.246;9.220;2023-03-21T13:17:58;93983.69;;;19.54;33.45
73600;BME280;61877;48.246;9.220;2023-03-21T13:20:34;93988.06;;;19.19;34.70
73600;BME280;61877;48.246;9.220;2023-03-21T13:23:03;93979.47;;;19.39;34.56
73600;BME280;61877;48.246;9.220;2023-03-21T13:25:31;93974.47;;;19.16;34.35
73600;BME280;61877;48.246;9.220;2023-03-21T13:28:00;93976.41;;;19.12;35.04
73600;BME280;61877;48.246;9.220;2023-03-21T13:30:27;93979.19;;;18.94;34.62
73600;BME280;61877;48.246;9.220;2023-03-21T13:33:12;93981.22;;;18.48;36.33
73600;BME280;61877;48.246;9.220;2023-03-21T13:38:28;93982.34;;;18.16;36.07
73600;BME280;61877;48.246;9.220;2023-03-21T13:40:57;93974.16;;;17.94;36.41
73600;BME280;61877;48.246;9.220;2023-03-21T13:43:42;93969.84;;;17.76;37.40
73600;BME280;61877;48.246;9.220;2023-03-21T13:46:09;93964.47;;;17.90;38.72